createdAt,value
2018-04-06T00:00:01.747Z,67.60
2018-04-06T00:02:29.919Z,67.40
2018-04-06T00:04:58.119Z,67.60
2018-04-06T00:07:26.262Z,67.60
2018-04-06T00:09:54.436Z,67.60
2018-04-06T00:12:29.583Z,67.60
2018-04-06T00:14:57.860Z,67.60
2018-04-06T00:17:26.021Z,67.60
2018-04-06T00:19:54.198Z,67.70
2018-04-06T00:22:22.483Z,67.50
2018-04-06T00:24:50.759Z,67.40
2018-04-06T00:27:18.923Z,67.40
2018-04-06T00:29:48.023Z,67.50
2018-04-06T00:32:16.190Z,67.40
2018-04-06T00:34:45.185Z,67.40
2018-04-06T00:37:13.355Z,67.40
2018-04-06T00:39:42.047Z,67.40
2018-04-06T00:42:10.219Z,67.30
2018-04-06T00:44:38.394Z,67.30
2018-04-06T00:47:07.997Z,67.30
2018-04-06T00:49:36.169Z,67.20
2018-04-06T00:52:04.347Z,67.20
2018-04-06T00:54:32.631Z,67.20
2018-04-06T00:57:00.796Z,67.00
2018-04-06T00:59:28.978Z,66.60
2018-04-06T01:01:57.145Z,67.00
2018-04-06T01:04:25.318Z,67.60
2018-04-06T01:06:53.486Z,66.90
2018-04-06T01:09:21.781Z,66.90
2018-04-06T01:11:50.653Z,66.70
2018-04-06T01:14:19.863Z,66.70
2018-04-06T01:16:48.138Z,66.70
2018-04-06T01:19:16.306Z,66.70
2018-04-06T01:21:44.478Z,67.50
2018-04-06T01:24:12.762Z,66.60
2018-04-06T01:26:40.726Z,66.50
2018-04-06T01:29:08.892Z,66.60
2018-04-06T01:31:37.072Z,66.50
2018-04-06T01:34:05.244Z,66.50
2018-04-06T01:36:33.413Z,66.50
2018-04-06T01:39:02.102Z,66.40
2018-04-06T01:41:30.272Z,66.50
2018-04-06T01:43:58.562Z,66.40
2018-04-06T01:46:26.837Z,66.50
2018-04-06T01:48:55.001Z,66.50
2018-04-06T01:51:23.072Z,66.50
2018-04-06T01:53:51.017Z,66.50
2018-04-06T01:56:19.110Z,66.40
2018-04-06T01:58:47.285Z,66.40
2018-04-06T02:01:15.461Z,66.50
2018-04-06T02:03:43.630Z,66.60
2018-04-06T02:06:12.316Z,66.60
2018-04-06T02:08:40.604Z,66.70
2018-04-06T02:11:08.880Z,66.60
2018-04-06T02:13:37.975Z,66.60
2018-04-06T02:16:06.136Z,67.50
2018-04-06T02:18:34.310Z,66.60
2018-04-06T02:21:02.314Z,66.70
2018-04-06T02:23:30.566Z,66.70
2018-04-06T02:25:58.832Z,66.70
2018-04-06T02:28:27.009Z,66.70
2018-04-06T02:30:55.294Z,66.70
2018-04-06T02:33:24.178Z,66.70
2018-04-06T02:35:52.345Z,66.60
2018-04-06T02:38:20.529Z,66.70
2018-04-06T02:40:49.523Z,66.60
2018-04-06T02:43:18.618Z,66.60
2018-04-06T02:45:46.780Z,66.50
2018-04-06T02:48:15.067Z,66.50
2018-04-06T02:50:43.229Z,66.40
2018-04-06T02:53:11.409Z,66.60
2018-04-06T02:55:39.578Z,66.40
2018-04-06T02:58:07.754Z,66.40
2018-04-06T03:00:36.606Z,66.40
2018-04-06T03:03:04.875Z,66.40
2018-04-06T03:05:33.094Z,66.40
2018-04-06T03:08:01.378Z,66.40
2018-04-06T03:10:29.543Z,66.40
2018-04-06T03:12:57.828Z,66.40
2018-04-06T03:15:25.964Z,66.30
2018-04-06T03:17:54.162Z,67.00
2018-04-06T03:20:22.336Z,66.30
2018-04-06T03:22:50.516Z,66.40
2018-04-06T03:25:18.802Z,66.30
2018-04-06T03:27:47.790Z,66.30
2018-04-06T03:30:15.959Z,66.30
2018-04-06T03:32:44.239Z,66.20
2018-04-06T03:35:12.618Z,66.30
2018-04-06T03:37:40.786Z,66.20
2018-04-06T03:40:08.953Z,65.90
2018-04-06T03:42:37.127Z,66.20
2018-04-06T03:45:05.421Z,66.10
2018-04-06T03:47:34.299Z,66.20
2018-04-06T03:50:03.185Z,66.10
2018-04-06T03:52:31.361Z,65.70
2018-04-06T03:54:59.531Z,66.10
2018-04-06T03:57:27.705Z,66.10
2018-04-06T03:59:56.711Z,66.20
2018-04-06T04:02:25.668Z,66.20
2018-04-06T04:04:53.765Z,66.10
2018-04-06T04:07:22.056Z,66.10
2018-04-06T04:09:50.216Z,66.10
2018-04-06T04:12:19.107Z,66.00
2018-04-06T04:14:47.276Z,66.10
2018-04-06T04:17:15.563Z,66.00
2018-04-06T04:19:44.449Z,66.10
2018-04-06T04:22:12.512Z,66.10
2018-04-06T04:24:40.803Z,66.00
2018-04-06T04:27:09.687Z,66.10
2018-04-06T04:29:37.968Z,66.10
2018-04-06T04:32:06.856Z,66.20
2018-04-06T04:34:35.739Z,66.20
2018-04-06T04:37:04.024Z,66.00
2018-04-06T04:39:33.121Z,66.20
2018-04-06T04:42:02.001Z,66.10
2018-04-06T04:44:30.175Z,66.10
2018-04-06T04:46:58.459Z,66.10
2018-04-06T04:49:27.165Z,66.20
2018-04-06T04:51:56.035Z,66.10
2018-04-06T04:54:24.922Z,66.10
2018-04-06T04:56:53.201Z,66.10
2018-04-06T04:59:21.362Z,66.10
2018-04-06T05:01:49.651Z,66.00
2018-04-06T05:04:18.536Z,66.60
2018-04-06T05:06:46.600Z,66.10
2018-04-06T05:09:14.671Z,66.10
2018-04-06T05:11:43.567Z,66.20
2018-04-06T05:14:11.740Z,66.10
2018-04-06T05:16:39.912Z,65.80
2018-04-06T05:19:08.197Z,66.20
2018-04-06T05:21:37.178Z,66.90
2018-04-06T05:24:05.352Z,66.20
2018-04-06T05:26:33.528Z,66.20
2018-04-06T05:29:01.703Z,66.20
2018-04-06T05:31:30.489Z,66.20
2018-04-06T05:33:58.665Z,66.10
2018-04-06T05:36:26.834Z,66.20
2018-04-06T05:38:55.102Z,66.20
2018-04-06T05:41:23.295Z,66.30
2018-04-06T05:43:51.231Z,66.20
2018-04-06T05:46:19.329Z,66.00
2018-04-06T05:48:47.504Z,65.90
2018-04-06T05:51:15.670Z,65.80
2018-04-06T05:53:43.962Z,65.70
2018-04-06T05:56:12.124Z,65.60
2018-04-06T05:58:40.297Z,65.60
2018-04-06T06:01:08.472Z,65.50
2018-04-06T06:03:36.755Z,65.40
2018-04-06T06:06:05.634Z,66.10
2018-04-06T06:08:33.807Z,65.30
2018-04-06T06:11:02.096Z,65.20
2018-04-06T06:13:30.257Z,65.10
2018-04-06T06:15:58.430Z,65.10
2018-04-06T06:18:26.609Z,65.10
2018-04-06T06:20:55.498Z,65.10
2018-04-06T06:23:23.533Z,65.20
2018-04-06T06:25:51.640Z,65.30
2018-04-06T06:28:19.925Z,65.30
2018-04-06T06:30:48.086Z,65.30
2018-04-06T06:33:16.259Z,65.40
2018-04-06T06:35:44.331Z,65.30
2018-04-06T06:38:12.295Z,65.20
2018-04-06T06:40:40.484Z,65.30
2018-04-06T06:43:08.809Z,65.30
2018-04-06T06:45:37.037Z,64.80
2018-04-06T06:48:05.202Z,65.20
2018-04-06T06:50:33.378Z,65.30
2018-04-06T06:53:02.369Z,65.30
2018-04-06T06:55:30.542Z,65.30
2018-04-06T06:57:58.830Z,65.30
2018-04-06T07:00:27.105Z,65.30
2018-04-06T07:02:56.096Z,65.50
2018-04-06T07:05:24.262Z,64.90
2018-04-06T07:07:52.439Z,65.80
2018-04-06T07:10:20.707Z,65.10
2018-04-06T07:12:48.881Z,65.00
2018-04-06T07:15:17.057Z,64.80
2018-04-06T07:17:45.228Z,64.70
2018-04-06T07:20:13.517Z,64.60
2018-04-06T07:22:41.676Z,64.60
2018-04-06T07:25:09.849Z,65.20
2018-04-06T07:27:37.928Z,64.40
2018-04-06T07:30:06.710Z,64.20
2018-04-06T07:32:34.883Z,64.20
2018-04-06T07:35:03.057Z,64.20
2018-04-06T07:37:31.230Z,64.10
2018-04-06T07:40:00.223Z,64.00
2018-04-06T07:42:28.511Z,63.90
2018-04-06T07:44:57.254Z,63.60
2018-04-06T07:47:25.358Z,63.60
2018-04-06T07:49:53.533Z,63.40
2018-04-06T07:52:22.525Z,63.40
2018-04-06T07:54:50.702Z,63.30
2018-04-06T07:57:18.872Z,63.20
2018-04-06T07:59:47.048Z,63.20
2018-04-06T08:02:15.220Z,63.00
2018-04-06T08:04:44.214Z,62.80
2018-04-06T08:07:12.289Z,62.60
2018-04-06T08:09:40.570Z,62.60
2018-04-06T08:12:09.460Z,62.40
2018-04-06T08:14:38.455Z,62.10
2018-04-06T08:17:08.472Z,62.10
2018-04-06T08:19:36.639Z,62.10
2018-04-06T08:22:06.450Z,62.00
2018-04-06T08:24:35.449Z,61.80
2018-04-06T08:27:03.611Z,61.70
2018-04-06T08:29:31.784Z,61.60
2018-04-06T08:32:00.072Z,61.20
2018-04-06T08:34:29.667Z,60.60
2018-04-06T08:37:00.094Z,60.50
2018-04-06T08:39:28.267Z,60.50
2018-04-06T08:41:56.343Z,60.30
2018-04-06T08:44:26.054Z,59.90
2018-04-06T08:46:55.656Z,59.70
2018-04-06T08:49:24.547Z,59.60
2018-04-06T08:51:53.435Z,59.50
2018-04-06T08:54:22.441Z,59.90
2018-04-06T08:56:50.717Z,59.30
2018-04-06T08:59:18.878Z,59.20
2018-04-06T09:01:48.703Z,58.90
2018-04-06T09:04:16.868Z,58.90
2018-04-06T09:06:45.152Z,58.70
2018-04-06T09:09:13.428Z,58.60
2018-04-06T09:11:41.589Z,58.60
2018-04-06T09:14:11.200Z,58.40
2018-04-06T09:16:39.403Z,58.30
2018-04-06T09:19:08.388Z,58.30
2018-04-06T09:21:37.359Z,57.80
2018-04-06T09:24:05.644Z,57.80
2018-04-06T09:26:33.805Z,57.80
2018-04-06T09:29:04.335Z,57.40
2018-04-06T09:31:32.511Z,57.40
2018-04-06T09:34:00.682Z,57.30
2018-04-06T09:36:28.854Z,56.90
2018-04-06T09:38:57.030Z,56.70
2018-04-06T09:41:25.209Z,56.40
2018-04-06T09:43:54.098Z,56.20
2018-04-06T09:46:22.273Z,56.20
2018-04-06T09:48:51.054Z,56.20
2018-04-06T09:51:19.128Z,55.80
2018-04-06T09:53:47.202Z,55.70
2018-04-06T09:56:15.371Z,55.50
2018-04-06T09:58:43.659Z,55.30
2018-04-06T10:01:12.639Z,55.00
2018-04-06T10:03:40.813Z,55.00
2018-04-06T10:06:09.816Z,55.30
2018-04-06T10:08:38.708Z,54.60
2018-04-06T10:11:06.984Z,54.50
2018-04-06T10:13:35.150Z,54.30
2018-04-06T10:16:03.436Z,54.10
2018-04-06T10:18:31.607Z,53.70
2018-04-06T10:20:59.884Z,53.20
2018-04-06T10:23:28.049Z,53.20
2018-04-06T10:25:58.778Z,52.80
2018-04-06T10:28:26.851Z,52.50
2018-04-06T10:30:55.026Z,52.00
2018-04-06T10:33:23.311Z,51.80
2018-04-06T10:35:51.586Z,51.90
2018-04-06T10:38:20.365Z,51.40
2018-04-06T10:40:49.361Z,50.70
2018-04-06T10:43:17.643Z,51.20
2018-04-06T10:45:46.636Z,51.20
2018-04-06T10:48:14.798Z,51.20
2018-04-06T10:50:43.086Z,51.10
2018-04-06T10:53:11.865Z,51.00
2018-04-06T10:55:40.149Z,50.90
2018-04-06T10:58:08.314Z,50.40
2018-04-06T11:00:38.134Z,50.20
2018-04-06T11:03:06.349Z,49.60
2018-04-06T11:05:34.471Z,49.30
2018-04-06T11:08:03.415Z,48.90
2018-04-06T11:10:31.538Z,48.30
2018-04-06T11:12:59.613Z,48.00
2018-04-06T11:15:28.395Z,47.80
2018-04-06T11:17:56.578Z,47.60
2018-04-06T11:20:24.639Z,47.30
2018-04-06T11:22:52.712Z,47.10
2018-04-06T11:25:20.884Z,47.00
2018-04-06T11:27:49.062Z,47.10
2018-04-06T11:30:17.132Z,46.60
2018-04-06T11:32:45.201Z,46.20
2018-04-06T11:35:13.375Z,45.90
2018-04-06T11:37:43.094Z,45.20
2018-04-06T11:40:11.265Z,45.10
2018-04-06T11:42:42.445Z,45.20
2018-04-06T11:45:14.374Z,44.70
2018-04-06T11:47:45.779Z,44.60
2018-04-06T11:50:18.538Z,44.90
2018-04-06T11:52:51.046Z,44.50
2018-04-06T11:55:23.292Z,44.40
2018-04-06T11:57:56.073Z,43.50
2018-04-06T12:00:29.806Z,43.00
2018-04-06T12:02:59.723Z,43.00
2018-04-06T12:05:29.953Z,42.70
2018-04-06T12:08:02.373Z,42.00
2018-04-06T12:10:32.495Z,42.00
2018-04-06T12:13:02.824Z,41.70
2018-04-06T12:15:34.685Z,41.20
2018-04-06T12:18:05.069Z,41.20
2018-04-06T12:20:35.187Z,41.00
2018-04-06T12:23:06.362Z,41.00
2018-04-06T12:25:36.469Z,40.30
2018-04-06T12:28:06.927Z,40.50
2018-04-06T12:30:37.916Z,40.20
2018-04-06T12:33:07.664Z,40.10
2018-04-06T12:35:38.672Z,40.30
2018-04-06T12:38:08.859Z,40.50
2018-04-06T12:40:39.144Z,40.50
2018-04-06T12:43:09.159Z,40.30
2018-04-06T12:45:39.164Z,40.30
2018-04-06T12:48:09.212Z,40.20
2018-04-06T12:50:39.745Z,40.00
2018-04-06T12:53:09.848Z,39.80
2018-04-06T12:55:39.763Z,40.10
2018-04-06T12:58:09.754Z,40.00
2018-04-06T13:00:39.591Z,40.40
2018-04-06T13:03:09.568Z,41.00
2018-04-06T13:05:40.508Z,41.50
2018-04-06T13:08:11.006Z,42.00
2018-04-06T13:10:39.315Z,42.30
2018-04-06T13:13:07.480Z,42.50
2018-04-06T13:15:35.768Z,42.50
2018-04-06T13:18:04.041Z,42.60
2018-04-06T13:20:32.317Z,42.80
2018-04-06T13:23:00.990Z,43.10
2018-04-06T13:25:29.279Z,43.60
2018-04-06T13:27:57.381Z,43.70
2018-04-06T13:30:25.737Z,43.90
2018-04-06T13:32:54.823Z,44.50
2018-04-06T13:35:22.907Z,44.50
2018-04-06T13:37:51.776Z,44.70
2018-04-06T13:40:20.060Z,44.70
2018-04-06T13:42:48.344Z,44.70
2018-04-06T13:45:16.617Z,44.90
2018-04-06T13:47:44.775Z,45.00
2018-04-06T13:50:13.677Z,45.00
2018-04-06T13:52:41.846Z,45.20
2018-04-06T13:55:10.127Z,45.30
2018-04-06T13:57:38.291Z,45.30
2018-04-06T14:00:07.289Z,45.30
2018-04-06T14:02:35.454Z,45.40
2018-04-06T14:05:03.744Z,45.50
2018-04-06T14:07:31.916Z,46.20
2018-04-06T14:10:00.079Z,45.50
2018-04-06T14:12:28.252Z,45.70
2018-04-06T14:14:56.428Z,45.70
2018-04-06T14:17:26.040Z,45.60
2018-04-06T14:19:56.836Z,45.60
2018-04-06T14:22:24.945Z,45.70
2018-04-06T14:24:53.124Z,45.90
2018-04-06T14:27:21.399Z,46.10
2018-04-06T14:29:50.182Z,46.40
2018-04-06T14:32:18.685Z,46.70
2018-04-06T14:34:47.763Z,46.70
2018-04-06T14:37:16.050Z,46.70
2018-04-06T14:39:45.035Z,46.60
2018-04-06T14:42:13.098Z,46.60
2018-04-06T14:44:41.276Z,46.80
2018-04-06T14:47:09.440Z,46.70
2018-04-06T14:49:37.619Z,47.10
2018-04-06T14:52:08.615Z,47.30
2018-04-06T14:54:36.840Z,47.30
2018-04-06T14:57:07.669Z,47.50
2018-04-06T14:59:36.353Z,47.40
2018-04-06T15:02:04.756Z,47.50
2018-04-06T15:04:33.724Z,47.40
2018-04-06T15:07:01.906Z,47.90
2018-04-06T15:09:30.196Z,47.50
2018-04-06T15:12:02.167Z,47.80
2018-04-06T15:14:31.672Z,47.80
2018-04-06T15:17:01.311Z,47.60
2018-04-06T15:19:31.278Z,47.50
2018-04-06T15:21:59.558Z,47.60
2018-04-06T15:24:29.185Z,47.50
2018-04-06T15:26:58.266Z,47.60
2018-04-06T15:29:27.761Z,47.70
2018-04-06T15:31:57.299Z,47.70
2018-04-06T15:34:26.911Z,47.80
2018-04-06T15:36:55.583Z,47.80
2018-04-06T15:39:25.163Z,47.70
2018-04-06T15:41:53.989Z,47.70
2018-04-06T15:44:22.560Z,48.10
2018-04-06T15:46:52.280Z,47.60
2018-04-06T15:49:20.948Z,47.60
2018-04-06T15:51:50.676Z,47.70
2018-04-06T15:54:19.767Z,47.50
2018-04-06T15:56:48.443Z,47.50
2018-04-06T15:59:18.063Z,47.20
2018-04-06T16:01:47.663Z,47.30
2018-04-06T16:04:17.276Z,47.30
2018-04-06T16:06:46.670Z,47.40
2018-04-06T16:09:16.162Z,47.50
2018-04-06T16:11:45.784Z,47.60
2018-04-06T16:14:15.294Z,47.60
2018-04-06T16:16:44.080Z,47.60
2018-04-06T16:19:13.634Z,47.40
2018-04-06T16:21:43.190Z,47.40
2018-04-06T16:24:12.803Z,47.50
2018-04-06T16:26:42.910Z,47.50
2018-04-06T16:29:12.487Z,47.50
2018-04-06T16:31:41.909Z,47.50
2018-04-06T16:34:11.535Z,47.60
2018-04-06T16:36:40.315Z,47.60
2018-04-06T16:39:09.805Z,47.80
2018-04-06T16:41:39.959Z,47.90
2018-04-06T16:44:09.445Z,48.00
2018-04-06T16:46:38.952Z,48.00
2018-04-06T16:49:07.646Z,48.00
2018-04-06T16:51:37.137Z,48.40
2018-04-06T16:54:06.656Z,48.50
2018-04-06T16:56:36.886Z,48.50
2018-04-06T16:59:05.557Z,48.60
2018-04-06T17:01:35.144Z,48.80
2018-04-06T17:04:04.781Z,48.90
2018-04-06T17:06:33.551Z,48.80
2018-04-06T17:09:03.887Z,49.00
2018-04-06T17:11:33.493Z,49.10
2018-04-06T17:14:02.990Z,49.10
2018-04-06T17:16:32.499Z,49.10
2018-04-06T17:19:02.007Z,49.10
2018-04-06T17:21:32.326Z,49.20
2018-04-06T17:24:01.935Z,49.30
2018-04-06T17:26:31.544Z,49.40
2018-04-06T17:29:00.953Z,49.30
2018-04-06T17:31:29.745Z,49.40
2018-04-06T17:33:59.355Z,49.60
2018-04-06T17:36:28.246Z,49.50
2018-04-06T17:38:57.018Z,49.60
2018-04-06T17:41:26.637Z,49.80
2018-04-06T17:43:57.869Z,49.70
2018-04-06T17:46:27.493Z,49.80
2018-04-06T17:48:57.716Z,49.90
2018-04-06T17:51:27.311Z,50.00
2018-04-06T17:53:56.920Z,50.00
2018-04-06T17:56:26.435Z,50.10
2018-04-06T17:58:56.030Z,50.00
2018-04-06T18:01:25.741Z,50.10
2018-04-06T18:03:54.986Z,50.10
2018-04-06T18:06:24.244Z,50.10
2018-04-06T18:08:53.844Z,50.20
2018-04-06T18:11:22.528Z,50.10
2018-04-06T18:13:52.139Z,50.10
2018-04-06T18:16:21.039Z,50.10
2018-04-06T18:18:50.518Z,50.20
2018-04-06T18:21:20.861Z,50.20
2018-04-06T18:23:50.347Z,50.20
2018-04-06T18:26:19.969Z,50.30
2018-04-06T18:28:49.543Z,50.30
2018-04-06T18:31:19.091Z,50.40
2018-04-06T18:33:47.985Z,50.40
2018-04-06T18:36:18.378Z,50.60
2018-04-06T18:38:48.017Z,50.70
2018-04-06T18:41:17.603Z,50.70
2018-04-06T18:43:47.113Z,50.80
2018-04-06T18:46:16.720Z,51.00
2018-04-06T18:48:47.054Z,51.10
2018-04-06T18:51:16.654Z,51.20
2018-04-06T18:53:46.258Z,51.20
2018-04-06T18:56:15.163Z,51.20
2018-04-06T18:58:44.872Z,51.40
2018-04-06T19:01:13.647Z,51.30
2018-04-06T19:03:43.368Z,51.50
2018-04-06T19:06:13.980Z,51.50
2018-04-06T19:08:43.380Z,51.50
2018-04-06T19:11:13.105Z,51.60
2018-04-06T19:13:42.590Z,51.80
2018-04-06T19:16:12.116Z,51.80
2018-04-06T19:18:41.004Z,51.80
2018-04-06T19:21:09.907Z,52.00
2018-04-06T19:23:39.493Z,52.10
2018-04-06T19:26:08.290Z,52.00
2018-04-06T19:28:37.787Z,52.20
2018-04-06T19:31:06.581Z,52.20
2018-04-06T19:33:35.475Z,52.30
2018-04-06T19:36:05.397Z,52.40
2018-04-06T19:38:34.120Z,52.40
2018-04-06T19:41:02.959Z,52.40
2018-04-06T19:43:33.186Z,52.70
2018-04-06T19:46:03.099Z,52.70
2018-04-06T19:48:32.808Z,52.70
2018-04-06T19:51:02.631Z,52.90
2018-04-06T19:53:32.874Z,52.90
2018-04-06T19:56:02.344Z,52.90
2018-04-06T19:58:31.958Z,53.00
2018-04-06T20:01:02.595Z,53.10
2018-04-06T20:03:32.806Z,53.20
2018-04-06T20:06:03.140Z,53.20
2018-04-06T20:08:31.882Z,53.20
2018-04-06T20:11:02.035Z,53.40
2018-04-06T20:13:31.835Z,53.50
2018-04-06T20:16:01.361Z,53.60
2018-04-06T20:18:30.993Z,53.70
2018-04-06T20:21:00.476Z,53.70
2018-04-06T20:23:30.084Z,53.80
2018-04-06T20:25:59.788Z,53.80
2018-04-06T20:28:29.497Z,54.00
2018-04-06T20:30:58.982Z,54.10
2018-04-06T20:33:28.500Z,54.20
2018-04-06T20:35:58.247Z,54.20
2018-04-06T20:38:26.996Z,54.30
2018-04-06T20:40:55.791Z,54.40
2018-04-06T20:43:24.580Z,54.40
2018-04-06T20:45:54.068Z,54.70
2018-04-06T20:48:24.180Z,54.80
2018-04-06T20:50:53.714Z,55.00
2018-04-06T20:53:23.321Z,55.00
2018-04-06T20:55:52.104Z,55.00
2018-04-06T20:58:21.802Z,55.30
2018-04-06T21:00:50.477Z,55.20
2018-04-06T21:03:19.992Z,55.40
2018-04-06T21:05:48.383Z,55.40
2018-04-06T21:08:17.146Z,55.60
2018-04-06T21:10:46.681Z,55.70
2018-04-06T21:13:16.063Z,56.00
2018-04-06T21:15:45.136Z,56.10
2018-04-06T21:18:14.636Z,56.10
2018-04-06T21:20:43.239Z,56.10
2018-04-06T21:23:12.331Z,56.00
2018-04-06T21:25:41.446Z,56.10
2018-04-06T21:28:09.580Z,56.10
2018-04-06T21:30:37.760Z,56.20
2018-04-06T21:33:06.036Z,56.30
2018-04-06T21:35:34.204Z,56.40
2018-04-06T21:38:02.375Z,57.30
2018-04-06T21:40:30.658Z,57.20
2018-04-06T21:42:58.935Z,56.80
2018-04-06T21:45:27.049Z,56.80
2018-04-06T21:47:55.884Z,57.00
2018-04-06T21:50:24.673Z,57.10
2018-04-06T21:52:53.063Z,57.20
2018-04-06T21:55:21.225Z,57.20
2018-04-06T21:57:49.615Z,57.20
2018-04-06T22:00:17.780Z,57.10
2018-04-06T22:02:46.058Z,57.70
2018-04-06T22:05:14.232Z,57.10
2018-04-06T22:07:42.400Z,57.20
2018-04-06T22:10:10.793Z,57.40
2018-04-06T22:12:39.066Z,57.50
2018-04-06T22:15:07.849Z,57.70
2018-04-06T22:17:36.019Z,57.80
2018-04-06T22:20:04.701Z,57.90
2018-04-06T22:22:32.877Z,58.00
2018-04-06T22:25:01.469Z,58.00
2018-04-06T22:27:30.463Z,58.30
2018-04-06T22:29:58.738Z,58.20
2018-04-06T22:32:27.013Z,58.20
2018-04-06T22:34:55.187Z,58.30
2018-04-06T22:37:23.976Z,59.10
2018-04-06T22:39:52.137Z,58.70
2018-04-06T22:42:20.312Z,59.30
2018-04-06T22:44:48.488Z,58.70
2018-04-06T22:47:16.559Z,58.80
2018-04-06T22:49:44.730Z,58.80
2018-04-06T22:52:12.801Z,58.90
2018-04-06T22:54:41.093Z,59.00
2018-04-06T22:57:15.651Z,59.00
2018-04-06T22:59:43.887Z,59.10
2018-04-06T23:02:11.950Z,59.20
2018-04-06T23:04:40.120Z,59.30
2018-04-06T23:07:08.410Z,59.40
2018-04-06T23:09:36.570Z,59.60
2018-04-06T23:12:04.750Z,59.70
2018-04-06T23:14:32.916Z,59.80
2018-04-06T23:17:00.988Z,59.80
2018-04-06T23:19:29.136Z,59.70
2018-04-06T23:21:57.962Z,59.80
2018-04-06T23:24:26.236Z,59.70
2018-04-06T23:26:54.513Z,59.90
2018-04-06T23:29:22.680Z,60.10
2018-04-06T23:31:50.963Z,60.00
2018-04-06T23:34:19.125Z,60.30
2018-04-06T23:36:48.948Z,60.50
2018-04-06T23:39:17.110Z,60.40
2018-04-06T23:41:45.287Z,60.20
2018-04-06T23:44:13.463Z,60.80
2018-04-06T23:46:41.746Z,60.90
2018-04-06T23:49:12.453Z,60.90
2018-04-06T23:51:40.543Z,60.70
2018-04-06T23:54:10.978Z,60.90
2018-04-06T23:56:39.143Z,60.90
2018-04-06T23:59:13.768Z,60.80
